Time;durP1;ratioP1;P1;durP2;ratioP2;P2;SDS_P1;SDS_P2;PMS_P1;PMS_P2;Temp;Humidity;BMP_temperature;BMP_pressure;BME280_temperature;BME280_humidity;BME280_pressure;Samples;Min_cycle;Max_cycle;Signal;HPM_P1;HPM_P2
2023/10/24 00:00:30;;;;;;;14.70;7.70;;;;;;;7.68;100.00;100601.75;4944188;28;20495;-74
2023/10/24 00:02:55;;;;;;;12.02;6.72;;;;;;;7.75;100.00;100610.81;4916268;28;20072;-74
2023/10/24 00:05:21;;;;;;;18.20;8.73;;;;;;;7.92;100.00;100625.97;4892614;28;20496;-74
2023/10/24 00:07:46;;;;;;;13.57;8.33;;;;;;;7.98;100.00;100625.41;4892165;28;20036;-74
2023/10/24 00:10:11;;;;;;;15.30;9.33;;;;;;;8.03;100.00;100617.81;4906310;28;20040;-73
2023/10/24 00:12:37;;;;;;;13.63;8.47;;;;;;;8.03;100.00;100620.47;4952801;28;20416;-74
2023/10/24 00:15:03;;;;;;;12.83;8.13;;;;;;;8.09;100.00;100610.22;4891754;28;20260;-75
2023/10/24 00:17:28;;;;;;;18.85;10.68;;;;;;;8.20;100.00;100618.00;4900012;28;20033;-74
2023/10/24 00:19:53;;;;;;;28.60;9.73;;;;;;;8.20;100.00;100607.34;4908736;28;20079;-74
2023/10/24 00:22:19;;;;;;;18.10;9.77;;;;;;;8.25;100.00;100600.56;4898366;28;20045;-74
2023/10/24 00:24:44;;;;;;;18.70;10.80;;;;;;;8.32;100.00;100605.31;4899899;28;20032;-74
2023/10/24 00:27:10;;;;;;;22.97;11.13;;;;;;;8.34;100.00;100592.69;4900016;29;20649;-74
2023/10/24 00:29:36;;;;;;;24.92;12.68;;;;;;;8.37;100.00;100590.53;4956884;28;20454;-74
2023/10/24 00:32:01;;;;;;;21.77;11.27;;;;;;;8.47;100.00;100579.03;4914637;28;20025;-74
2023/10/24 00:34:27;;;;;;;20.70;12.43;;;;;;;8.45;100.00;100564.06;4906649;28;20037;-74
2023/10/24 00:36:52;;;;;;;22.60;12.60;;;;;;;8.49;100.00;100558.44;4875195;28;20044;-74
2023/10/24 00:39:18;;;;;;;22.20;11.40;;;;;;;8.48;100.00;100546.13;4959778;28;20039;-74
2023/10/24 00:41:43;;;;;;;22.55;11.52;;;;;;;8.55;100.00;100557.81;4894737;28;20056;-74
2023/10/24 00:44:09;;;;;;;15.07;10.33;;;;;;;8.50;100.00;100563.59;4946427;28;20083;-75
2023/10/24 00:46:36;;;;;;;;;;;;;;;8.64;100.00;100568.38;4910025;28;20091;-75
2023/10/24 00:49:02;;;;;;;17.52;9.70;;;;;;;8.59;100.00;100560.03;4908643;28;19911;-74
2023/10/24 00:51:27;;;;;;;;;;;;;;;8.62;100.00;100562.38;4976109;28;20407;-74
2023/10/24 00:53:53;;;;;;;17.45;9.43;;;;;;;8.66;100.00;100554.91;4916313;28;20002;-74
2023/10/24 00:56:21;;;;;;;18.30;8.82;;;;;;;8.81;100.00;100549.88;4909648;28;20029;-74
2023/10/24 00:59:06;;;;;;;18.17;7.85;;;;;;;8.82;100.00;100555.00;4903368;28;20083;-74
2023/10/24 01:01:51;;;;;;;14.15;7.82;;;;;;;8.87;100.00;100542.09;4950167;28;20103;-75
2023/10/24 01:04:35;;;;;;;12.93;7.85;;;;;;;8.91;100.00;100531.94;4899157;28;20048;-75
2023/10/24 01:07:19;;;;;;;11.50;6.95;;;;;;;8.96;100.00;100539.47;4894872;28;20080;-74
2023/10/24 01:10:04;;;;;;;10.93;7.95;;;;;;;8.92;100.00;100530.13;4895173;28;20401;-75
2023/10/24 01:12:48;;;;;;;11.88;7.15;;;;;;;8.95;100.00;100524.50;4895035;28;20044;-74
2023/10/24 01:15:13;;;;;;;15.73;7.82;;;;;;;8.98;100.00;100508.19;4910971;28;20045;-75
2023/10/24 01:17:52;;;;;;;12.40;7.80;;;;;;;9.07;100.00;100509.91;4908248;28;20025;-74
2023/10/24 01:20:18;;;;;;;13.88;7.50;;;;;;;8.96;100.00;100491.53;4906225;28;20044;-74
2023/10/24 01:22:45;;;;;;;15.18;6.53;;;;;;;9.03;100.00;100497.91;4947010;28;20087;-75
2023/10/24 01:25:14;;;;;;;17.85;7.68;;;;;;;8.98;100.00;100494.88;4974793;28;20117;-74
2023/10/24 01:27:45;;;;;;;11.98;7.25;;;;;;;9.05;100.00;100486.09;5004332;23;20030;-88
2023/10/24 01:30:12;;;;;;;10.60;6.38;;;;;;;8.98;100.00;100478.91;4956904;28;20039;-88
2023/10/24 01:32:38;;;;;;;10.32;6.43;;;;;;;9.02;100.00;100485.59;4922183;28;20025;-89
2023/10/24 01:35:06;;;;;;;10.02;5.63;;;;;;;9.12;100.00;100482.81;4947981;28;20043;-89
2023/10/24 01:37:35;;;;;;;9.50;5.55;;;;;;;9.05;100.00;100480.78;4932002;28;20054;-88
2023/10/24 01:40:02;;;;;;;12.82;6.47;;;;;;;9.06;100.00;100461.16;4932050;28;20074;-89
2023/10/24 01:42:28;;;;;;;9.68;6.03;;;;;;;9.18;100.00;100459.03;4965556;28;20024;-88
2023/10/24 01:44:53;;;;;;;10.15;6.50;;;;;;;9.28;100.00;100449.06;4916313;28;20503;-89
2023/10/24 01:47:19;;;;;;;10.48;6.43;;;;;;;9.31;100.00;100442.59;4947558;28;20534;-88
2023/10/24 01:49:44;;;;;;;16.80;7.13;;;;;;;9.29;100.00;100423.25;4923813;28;20027;-88
2023/10/24 01:52:13;;;;;;;8.57;5.05;;;;;;;9.17;100.00;100424.56;4923212;28;20127;-89
2023/10/24 01:54:45;;;;;;;9.88;5.93;;;;;;;9.18;100.00;100420.91;4972466;28;20027;-88
2023/10/24 01:57:15;;;;;;;7.13;4.67;;;;;;;9.32;100.00;100433.63;4947974;28;20499;-89
2023/10/24 01:59:40;;;;;;;8.60;5.38;;;;;;;9.36;100.00;100431.44;4977971;28;20019;-88
2023/10/24 02:02:06;;;;;;;10.05;4.88;;;;;;;9.40;100.00;100425.63;4947426;29;20042;-88
2023/10/24 02:04:31;;;;;;;7.37;4.00;;;;;;;9.27;100.00;100414.59;4916375;28;20395;-89
2023/10/24 02:06:57;;;;;;;10.13;4.93;;;;;;;9.34;100.00;100420.13;4930347;29;20288;-88
2023/10/24 02:09:22;;;;;;;9.30;4.87;;;;;;;9.48;100.00;100420.34;4947604;29;20487;-89
2023/10/24 02:11:48;;;;;;;11.17;4.40;;;;;;;9.50;100.00;100399.69;4929074;28;20055;-88
2023/10/24 02:14:13;;;;;;;8.23;5.25;;;;;;;9.43;100.00;100395.16;4933275;28;20032;-89
2023/10/24 02:16:38;;;;;;;10.13;4.70;;;;;;;9.45;100.00;100394.00;4915775;28;20364;-89
2023/10/24 02:19:04;;;;;;;7.73;5.03;;;;;;;9.50;100.00;100393.50;4947690;29;20434;-89
2023/10/24 02:21:29;;;;;;;9.85;4.95;;;;;;;9.46;100.00;100370.88;4931773;29;20114;-88
2023/10/24 02:23:57;;;;;;;8.90;4.03;;;;;;;9.51;100.00;100373.88;4979438;28;20039;-89
2023/10/24 02:26:23;;;;;;;8.50;5.15;;;;;;;9.51;100.00;100379.19;4939563;29;20086;-89
2023/10/24 02:28:48;;;;;;;9.93;4.80;;;;;;;9.55;100.00;100374.34;4946919;28;20075;-89
2023/10/24 02:31:14;;;;;;;10.23;5.70;;;;;;;9.52;100.00;100380.84;4931369;28;20047;-89
2023/10/24 02:33:40;;;;;;;9.25;5.40;;;;;;;9.55;100.00;100388.50;4931832;29;20036;-88
2023/10/24 02:36:14;;;;;;;8.10;4.93;;;;;;;9.60;100.00;100382.69;4915543;28;20395;-89
2023/10/24 02:38:39;;;;;;;11.40;5.25;;;;;;;9.67;100.00;100379.22;4937158;23;20392;-76
2023/10/24 02:41:05;;;;;;;9.10;5.93;;;;;;;9.65;100.00;100381.22;4929990;28;20042;-75
2023/10/24 02:43:30;;;;;;;13.90;6.43;;;;;;;9.63;100.00;100377.88;4946406;28;20015;-75
2023/10/24 02:45:57;;;;;;;12.55;6.13;;;;;;;9.55;100.00;100364.53;4979666;28;20040;-76
2023/10/24 02:48:23;;;;;;;16.52;8.27;;;;;;;9.63;100.00;100375.22;4910658;28;20043;-76
2023/10/24 02:50:53;;;;;;;11.40;5.88;;;;;;;9.65;100.00;100375.06;4925198;28;20032;-76
2023/10/24 02:53:19;;;;;;;11.95;5.82;;;;;;;9.71;100.00;100377.88;4928626;28;20075;-77
2023/10/24 02:55:44;;;;;;;20.33;8.25;;;;;;;9.78;100.00;100374.53;4929628;28;20480;-76
2023/10/24 02:58:09;;;;;;;13.80;7.07;;;;;;;9.76;100.00;100376.53;4921800;28;20043;-76
2023/10/24 03:00:35;;;;;;;12.77;7.17;;;;;;;9.66;100.00;100366.88;4911264;28;20032;-75
2023/10/24 03:03:00;;;;;;;13.53;7.07;;;;;;;9.80;100.00;100364.56;4929953;28;20019;-76
2023/10/24 03:05:26;;;;;;;14.88;7.78;;;;;;;9.77;100.00;100357.72;4930270;28;20074;-76
2023/10/24 03:07:52;;;;;;;12.48;7.90;;;;;;;9.83;100.00;100366.88;4927458;28;20023;-75
2023/10/24 03:10:17;;;;;;;13.50;8.20;;;;;;;9.80;100.00;100356.56;4929973;28;20480;-75
2023/10/24 03:12:43;;;;;;;16.07;7.93;;;;;;;9.76;100.00;100353.38;4929844;28;20040;-76
2023/10/24 03:15:09;;;;;;;18.20;8.27;;;;;;;9.73;100.00;100349.22;4989297;28;20036;-77
2023/10/24 03:17:34;;;;;;;;;;;;;;;9.77;100.00;100343.56;4929556;28;20032;-76
2023/10/24 03:20:02;;;;;;;12.80;8.20;;;;;;;9.84;100.00;100341.91;4936702;28;19911;-76
2023/10/24 03:22:27;;;;;;;16.85;8.88;;;;;;;9.81;100.00;100343.06;4926393;28;20043;-75
2023/10/24 03:24:53;;;;;;;17.63;9.10;;;;;;;9.91;100.00;100348.22;4913464;28;20500;-76
2023/10/24 03:27:18;;;;;;;17.67;9.70;;;;;;;9.91;100.00;100327.72;4929421;28;20241;-76
2023/10/24 03:29:44;;;;;;;14.45;8.68;;;;;;;10.00;100.00;100335.72;4929431;28;20059;-76
2023/10/24 03:32:10;;;;;;;23.10;10.17;;;;;;;9.96;100.00;100318.38;4929098;28;20055;-76
2023/10/24 03:34:38;;;;;;;15.43;9.48;;;;;;;9.87;100.00;100309.56;4930804;28;20387;-76
2023/10/24 03:37:04;;;;;;;19.67;11.43;;;;;;;9.86;100.00;100313.25;4929010;28;20032;-75
2023/10/24 03:39:29;;;;;;;17.07;10.30;;;;;;;9.87;100.00;100323.72;4995877;28;20491;-76
2023/10/24 03:41:55;;;;;;;23.20;11.50;;;;;;;9.93;100.00;100315.06;4927321;28;20386;-75
2023/10/24 03:44:23;;;;;;;20.35;10.60;;;;;;;10.02;100.00;100313.22;4929199;28;20370;-76
2023/10/24 03:46:49;;;;;;;21.30;10.55;;;;;;;10.03;100.00;100295.38;4928224;28;20526;-76
2023/10/24 03:49:14;;;;;;;19.98;10.68;;;;;;;10.02;100.00;100289.22;4928564;28;20028;-76
2023/10/24 03:51:40;;;;;;;22.03;11.27;;;;;;;9.96;100.00;100289.88;4926562;28;20085;-75
2023/10/24 03:54:05;;;;;;;17.33;11.18;;;;;;;9.97;100.00;100280.03;4926454;28;21430;-76
2023/10/24 03:56:33;;;;;;;18.73;12.05;;;;;;;10.03;100.00;100284.69;4927250;28;20115;-76
2023/10/24 03:58:59;;;;;;;18.37;11.27;;;;;;;10.10;100.00;100280.34;4912933;28;20479;-76
2023/10/24 04:01:24;;;;;;;19.00;11.38;;;;;;;10.02;100.00;100270.53;4921886;28;20649;-76
2023/10/24 04:03:50;;;;;;;19.55;11.45;;;;;;;10.06;100.00;100279.84;4942009;28;20032;-77
2023/10/24 04:06:16;;;;;;;20.60;11.53;;;;;;;10.03;100.00;100264.19;4911448;28;20028;-76
2023/10/24 04:08:42;;;;;;;25.20;12.60;;;;;;;10.11;100.00;100266.84;4918871;28;20038;-76
2023/10/24 04:11:17;;;;;;;17.80;10.10;;;;;;;10.02;100.00;100261.69;4912650;28;20425;-75
2023/10/24 04:13:46;;;;;;;17.85;10.45;;;;;;;10.08;100.00;100253.00;4911027;28;20043;-76
2023/10/24 04:16:12;;;;;;;21.38;11.93;;;;;;;10.10;100.00;100246.50;4913112;28;20074;-76
2023/10/24 04:18:39;;;;;;;20.25;10.98;;;;;;;10.08;100.00;100240.50;4987734;28;20023;-76
2023/10/24 04:21:04;;;;;;;;;;;;;;;10.11;100.00;100237.50;4942753;28;20035;-76
2023/10/24 04:23:30;;;;;;;26.20;11.55;;;;;;;10.10;100.00;100232.34;4944915;28;20406;-75
2023/10/24 04:25:55;;;;;;;20.57;11.70;;;;;;;10.04;100.00;100231.16;4995270;28;20143;-75
2023/10/24 04:28:20;;;;;;;17.07;10.40;;;;;;;10.14;100.00;100223.81;4928520;28;20366;-76
2023/10/24 04:30:46;;;;;;;21.47;12.83;;;;;;;10.19;100.00;100215.31;4944838;28;20326;-76
2023/10/24 04:33:11;;;;;;;23.87;12.00;;;;;;;10.18;100.00;100210.13;4928185;28;20028;-75
2023/10/24 04:35:41;;;;;;;21.23;11.57;;;;;;;10.08;100.00;100195.16;4928651;28;20370;-75
2023/10/24 04:38:06;;;;;;;19.30;12.38;;;;;;;10.12;100.00;100188.47;4920193;28;20044;-76
2023/10/24 04:40:36;;;;;;;18.87;11.70;;;;;;;10.12;100.00;100185.81;4928542;28;20118;-76
2023/10/24 04:43:01;;;;;;;19.27;11.85;;;;;;;10.10;100.00;100185.16;4920688;28;20086;-76
2023/10/24 04:45:29;;;;;;;18.40;10.83;;;;;;;10.13;100.00;100186.63;4944560;28;20428;-76
2023/10/24 04:47:55;;;;;;;23.13;11.10;;;;;;;10.20;100.00;100179.59;4921937;28;20079;-76
2023/10/24 04:50:20;;;;;;;20.35;11.95;;;;;;;10.19;100.00;100185.13;4924304;28;20047;-75
2023/10/24 04:52:46;;;;;;;20.50;12.40;;;;;;;10.27;100.00;100177.06;4928658;28;20122;-75
2023/10/24 04:55:11;;;;;;;26.17;11.93;;;;;;;10.27;100.00;100182.41;4928437;28;20039;-75
2023/10/24 04:57:36;;;;;;;20.63;12.23;;;;;;;10.33;100.00;100176.41;4920192;28;20040;-76
2023/10/24 05:00:03;;;;;;;20.43;13.17;;;;;;;10.12;100.00;100156.47;4926929;28;20052;-75
2023/10/24 05:02:28;;;;;;;22.92;13.40;;;;;;;10.27;100.00;100177.06;4929730;28;20050;-76
2023/10/24 05:04:54;;;;;;;25.23;13.70;;;;;;;10.14;100.00;100170.47;4919906;28;20028;-76
2023/10/24 05:07:19;;;;;;;19.45;13.05;;;;;;;10.33;100.00;100177.25;4913838;28;20040;-76
2023/10/24 05:09:45;;;;;;;22.23;12.93;;;;;;;10.21;100.00;100162.59;4927536;28;20024;-76
2023/10/24 05:12:10;;;;;;;21.87;12.70;;;;;;;10.09;100.00;100154.16;4927639;28;20028;-76
2023/10/24 05:14:36;;;;;;;19.98;12.00;;;;;;;10.27;100.00;100174.41;4921235;28;20031;-76
2023/10/24 05:17:01;;;;;;;21.17;13.00;;;;;;;10.29;100.00;100175.09;4924006;28;20417;-76
2023/10/24 05:19:26;;;;;;;27.77;12.53;;;;;;;10.34;100.00;100178.06;4912653;28;20031;-75
2023/10/24 05:21:52;;;;;;;23.60;12.50;;;;;;;10.34;100.00;100178.06;4910222;28;20040;-76
2023/10/24 05:24:17;;;;;;;27.07;13.17;;;;;;;10.40;100.00;100166.72;4925207;28;20070;-76
2023/10/24 05:26:42;;;;;;;22.67;13.30;;;;;;;10.33;100.00;100155.06;4913171;28;20115;-75
2023/10/24 05:29:08;;;;;;;21.47;12.70;;;;;;;10.34;100.00;100154.06;4937046;28;20040;-75
2023/10/24 05:31:33;;;;;;;21.13;12.37;;;;;;;10.39;100.00;100153.53;4940748;28;20032;-76
2023/10/24 05:33:58;;;;;;;20.33;12.87;;;;;;;10.28;100.00;100144.06;4914381;28;20028;-76
2023/10/24 05:36:27;;;;;;;23.05;12.40;;;;;;;10.35;100.00;100147.72;4931352;28;20089;-76
2023/10/24 05:38:52;;;;;;;23.13;12.23;;;;;;;10.36;100.00;100149.38;4923264;28;20044;-76
2023/10/24 05:41:17;;;;;;;22.17;13.00;;;;;;;10.44;100.00;100152.00;4917426;29;20055;-76
2023/10/24 05:43:43;;;;;;;25.43;12.90;;;;;;;10.34;100.00;100151.38;4947220;28;20035;-75
2023/10/24 05:46:08;;;;;;;23.67;13.93;;;;;;;10.22;100.00;100158.09;5006920;28;20059;-75
2023/10/24 05:48:35;;;;;;;21.20;13.13;;;;;;;10.34;100.00;100173.56;4928412;28;20032;-76
2023/10/24 05:51:00;;;;;;;24.42;13.88;;;;;;;10.12;100.00;100151.13;4931379;29;20542;-75
2023/10/24 05:53:26;;;;;;;27.58;15.35;;;;;;;10.12;100.00;100177.81;4926235;28;20036;-75
2023/10/24 05:55:51;;;;;;;27.97;13.93;;;;;;;10.32;100.00;100185.41;4923006;28;20027;-76
2023/10/24 05:58:19;;;;;;;23.10;14.33;;;;;;;10.29;100.00;100199.13;4928623;28;20035;-76
2023/10/24 06:00:44;;;;;;;28.45;14.57;;;;;;;10.17;100.00;100181.81;4930973;29;20027;-76
2023/10/24 06:03:09;;;;;;;25.60;15.73;;;;;;;10.21;100.00;100199.09;4921450;28;20042;-79
2023/10/24 06:05:38;;;;;;;31.77;15.27;;;;;;;10.05;100.00;100200.03;4926566;28;20040;-81
2023/10/24 06:08:04;;;;;;;26.30;14.57;;;;;;;10.05;100.00;100208.03;4925200;28;20272;-81
2023/10/24 06:10:29;;;;;;;27.17;15.80;;;;;;;9.90;100.00;100197.22;4921817;28;20082;-81
2023/10/24 06:12:55;;;;;;;29.00;15.33;;;;;;;10.02;100.00;100211.00;4932107;28;20048;-80
2023/10/24 06:15:20;;;;;;;27.63;15.53;;;;;;;10.01;100.00;100196.03;4928767;28;20090;-79
2023/10/24 06:17:45;;;;;;;28.53;15.83;;;;;;;10.04;100.00;100217.00;4935895;28;20484;-80
2023/10/24 06:20:11;;;;;;;35.70;16.43;;;;;;;9.90;100.00;100203.41;4943593;28;20036;-79
2023/10/24 06:22:36;;;;;;;30.63;16.27;;;;;;;10.02;100.00;100209.19;4924482;28;20111;-79
2023/10/24 06:25:02;;;;;;;28.83;16.93;;;;;;;9.95;100.00;100205.56;4999458;28;20310;-79
2023/10/24 06:27:28;;;;;;;31.15;17.00;;;;;;;9.97;100.00;100214.19;4928042;28;20031;-78
2023/10/24 06:29:53;;;;;;;34.77;19.97;;;;;;;10.00;100.00;100221.06;4929192;28;20035;-79
2023/10/24 06:32:18;;;;;;;34.17;18.90;;;;;;;10.08;100.00;100213.00;4926945;28;20097;-80
2023/10/24 06:34:44;;;;;;;30.13;18.87;;;;;;;10.01;100.00;100217.38;4935219;28;20074;-80
2023/10/24 06:37:09;;;;;;;27.93;17.37;;;;;;;9.97;100.00;100208.88;4926728;28;20115;-80
2023/10/24 06:39:35;;;;;;;34.43;18.57;;;;;;;9.86;100.00;100206.59;4936326;28;20066;-80
2023/10/24 06:42:00;;;;;;;32.13;18.87;;;;;;;9.98;100.00;100205.22;4997088;28;20082;-82
2023/10/24 06:44:27;;;;;;;36.97;18.77;;;;;;;10.03;100.00;100202.03;4930082;28;20106;-80
2023/10/24 06:46:52;;;;;;;34.83;18.98;;;;;;;10.04;100.00;100209.00;4932911;28;20032;-80
2023/10/24 06:49:18;;;;;;;36.53;20.33;;;;;;;10.10;100.00;100209.16;4939434;28;20035;-81
2023/10/24 06:51:43;;;;;;;39.27;22.00;;;;;;;9.90;100.00;100191.88;4910192;29;20028;-81
2023/10/24 06:54:08;;;;;;;37.03;21.03;;;;;;;9.94;100.00;100185.22;4918339;28;20371;-83
2023/10/24 06:56:35;;;;;;;35.10;19.83;;;;;;;9.91;100.00;100185.56;4932297;28;20023;-82
2023/10/24 06:59:03;;;;;;;37.90;20.73;;;;;;;9.97;100.00;100187.53;4971870;28;20042;-84
2023/10/24 07:01:55;;;;;;;38.15;20.70;;;;;;;9.97;100.00;100179.53;4938877;28;20400;-82
2023/10/24 07:04:47;;;;;;;36.42;20.10;;;;;;;10.06;100.00;100167.81;4915037;28;20052;-83
2023/10/24 07:07:31;;;;;;;38.90;19.33;;;;;;;10.01;100.00;100143.50;4899136;28;20068;-84
2023/10/24 07:09:57;;;;;;;36.50;19.65;;;;;;;10.06;100.00;100135.81;4894162;28;20104;-84
2023/10/24 07:12:22;;;;;;;35.47;18.70;;;;;;;10.00;100.00;100133.88;4904486;28;20087;-84
2023/10/24 07:14:52;;;;;;;33.37;18.47;;;;;;;10.04;100.00;100124.50;4886346;28;20108;-84
2023/10/24 07:17:17;;;;;;;37.97;19.52;;;;;;;10.07;100.00;100129.50;4884686;28;20104;-83
2023/10/24 07:19:42;;;;;;;34.37;19.07;;;;;;;10.00;100.00;100111.72;4900844;28;20068;-84
2023/10/24 07:22:08;;;;;;;33.10;18.57;;;;;;;10.17;100.00;100112.44;4900630;28;20048;-82
2023/10/24 07:24:33;;;;;;;35.27;18.40;;;;;;;10.13;100.00;100107.44;4918147;28;20040;-83
2023/10/24 07:26:58;;;;;;;35.27;17.23;;;;;;;10.15;100.00;100100.09;4892335;28;20032;-81
2023/10/24 07:29:28;;;;;;;32.20;17.27;;;;;;;10.03;100.00;100104.19;4955576;23;20073;-79
2023/10/24 07:31:53;;;;;;;29.13;15.52;;;;;;;10.11;100.00;100109.47;4952064;28;20043;-78
2023/10/24 07:34:19;;;;;;;30.20;17.73;;;;;;;10.05;100.00;100104.00;4941304;29;20035;-79
2023/10/24 07:36:44;;;;;;;29.70;17.70;;;;;;;10.17;100.00;100117.78;4932576;28;20073;-78
2023/10/24 07:39:10;;;;;;;35.90;17.20;;;;;;;10.15;100.00;100112.63;4951464;28;20035;-77
2023/10/24 07:41:35;;;;;;;28.53;14.80;;;;;;;10.07;100.00;100092.16;4932649;28;20043;-78
2023/10/24 07:44:00;;;;;;;36.93;16.40;;;;;;;9.99;100.00;100080.69;4947094;28;20070;-78
2023/10/24 07:46:27;;;;;;;26.55;16.02;;;;;;;9.99;100.00;100091.38;4996063;28;20051;-78
2023/10/24 07:48:52;;;;;;;28.97;15.23;;;;;;;10.07;100.00;100102.81;4956635;28;20126;-78
2023/10/24 07:51:18;;;;;;;29.73;18.17;;;;;;;10.11;100.00;100088.16;4939267;28;20499;-77
2023/10/24 07:53:44;;;;;;;29.75;15.77;;;;;;;10.11;100.00;100082.81;4946093;28;20490;-77
2023/10/24 07:56:09;;;;;;;28.67;15.40;;;;;;;10.11;100.00;100088.16;4932701;28;20043;-77
2023/10/24 07:58:35;;;;;;;27.53;16.83;;;;;;;10.04;100.00;100086.34;4932383;29;20079;-77
2023/10/24 08:01:00;;;;;;;33.00;16.20;;;;;;;10.14;100.00;100090.44;4945972;28;20342;-75
2023/10/24 08:03:26;;;;;;;24.00;14.37;;;;;;;10.20;100.00;100110.25;4937189;28;20039;-77
2023/10/24 08:05:52;;;;;;;31.20;16.50;;;;;;;10.33;100.00;100115.88;4947144;29;20035;-77
2023/10/24 08:08:17;;;;;;;31.85;15.00;;;;;;;10.29;100.00;100116.41;4963633;28;20458;-77
2023/10/24 08:10:43;;;;;;;31.60;16.95;;;;;;;10.33;100.00;100112.38;4941991;28;20028;-77
2023/10/24 08:13:08;;;;;;;28.10;16.73;;;;;;;10.15;100.00;100118.78;4946911;29;20553;-77
2023/10/24 08:15:34;;;;;;;28.40;15.53;;;;;;;10.24;100.00;100124.06;4928898;28;20086;-77
2023/10/24 08:17:59;;;;;;;31.90;15.88;;;;;;;10.18;100.00;100109.59;4929148;29;20085;-77
2023/10/24 08:20:26;;;;;;;31.48;16.45;;;;;;;10.22;100.00;100108.22;4928938;29;20130;-76
2023/10/24 08:22:52;;;;;;;27.90;16.27;;;;;;;10.36;100.00;100096.00;4936618;29;20042;-77
2023/10/24 08:25:17;;;;;;;30.60;14.90;;;;;;;10.20;100.00;100085.41;4948805;28;20036;-78
2023/10/24 08:27:45;;;;;;;28.13;16.37;;;;;;;10.39;100.00;100087.66;4948668;28;20065;-76
2023/10/24 08:30:11;;;;;;;27.70;15.07;;;;;;;10.28;100.00;100082.72;4947799;28;20035;-76
2023/10/24 08:32:36;;;;;;;28.67;16.92;;;;;;;10.28;100.00;100069.38;4937051;28;20036;-77
2023/10/24 08:35:02;;;;;;;30.47;16.20;;;;;;;10.33;100.00;100069.69;4930852;29;20545;-77
2023/10/24 08:37:27;;;;;;;26.87;15.97;;;;;;;10.36;100.00;100072.00;4943568;28;20130;-77
2023/10/24 08:39:54;;;;;;;29.45;16.15;;;;;;;10.46;100.00;100082.44;4947894;28;20047;-77
2023/10/24 08:42:19;;;;;;;;;;;;;;;10.38;100.00;100071.81;4930580;28;20031;-77
2023/10/24 08:44:45;;;;;;;;;;;;;;;10.31;100.00;100061.03;4944647;28;19994;-76
2023/10/24 08:47:13;;;;;;;30.35;15.50;;;;;;;10.46;100.00;100061.91;4963590;28;19921;-77
2023/10/24 08:49:38;;;;;;;29.50;16.33;;;;;;;10.42;100.00;100055.28;4942792;28;20031;-76
2023/10/24 08:52:04;;;;;;;30.55;16.33;;;;;;;10.39;100.00;100047.63;4928576;28;20381;-77
2023/10/24 08:54:30;;;;;;;31.17;17.67;;;;;;;10.53;100.00;100044.16;4936627;29;20043;-77
2023/10/24 08:56:57;;;;;;;28.92;15.40;;;;;;;10.53;100.00;100044.16;4945369;29;20020;-77
2023/10/24 08:59:25;;;;;;;;;;;;;;;10.52;100.00;100039.84;4950343;28;20071;-76
2023/10/24 09:01:50;;;;;;;27.08;15.50;;;;;;;10.58;100.00;100040.97;4952459;28;19924;-76
2023/10/24 09:04:17;;;;;;;34.87;16.83;;;;;;;10.44;100.00;100033.75;4934372;28;20040;-76
2023/10/24 09:06:46;;;;;;;28.58;16.80;;;;;;;10.69;100.00;100045.06;4940018;28;20112;-76
2023/10/24 09:09:13;;;;;;;23.63;15.52;;;;;;;10.74;100.00;100030.13;4933454;29;20031;-77
2023/10/24 09:11:57;;;;;;;28.20;15.95;;;;;;;10.52;100.00;100023.00;4935153;29;20031;-76
2023/10/24 09:14:24;;;;;;;26.90;16.38;;;;;;;10.56;100.00;100025.16;4943217;29;20038;-76
2023/10/24 09:16:54;;;;;;;23.70;15.25;;;;;;;10.51;100.00;100016.84;4947559;28;20036;-76
2023/10/24 09:19:20;;;;;;;29.60;15.88;;;;;;;10.59;100.00;100015.13;4934719;28;20039;-77
2023/10/24 09:21:45;;;;;;;26.95;15.77;;;;;;;10.72;100.00;100015.31;4942747;29;20514;-76
2023/10/24 09:24:14;;;;;;;28.60;14.87;;;;;;;10.77;100.00;100012.97;4949340;28;20048;-76
2023/10/24 09:26:40;;;;;;;21.92;15.30;;;;;;;10.38;100.00;99989.13;4961123;28;20041;-77
2023/10/24 09:29:08;;;;;;;28.60;16.77;;;;;;;10.69;100.00;100002.34;4940158;28;20047;-76
2023/10/24 09:31:34;;;;;;;23.95;15.23;;;;;;;10.71;100.00;99990.47;4939857;28;20543;-76
2023/10/24 09:33:59;;;;;;;27.25;15.80;;;;;;;10.63;100.00;99990.56;4948705;28;20118;-76
2023/10/24 09:36:25;;;;;;;27.13;15.63;;;;;;;10.46;100.00;99981.84;4942421;28;20059;-76
2023/10/24 09:38:52;;;;;;;27.27;15.98;;;;;;;10.46;100.00;99989.03;4951420;28;20027;-76
2023/10/24 09:41:18;;;;;;;23.50;15.73;;;;;;;10.80;100.00;100017.91;4949780;28;20535;-76
2023/10/24 09:43:47;;;;;;;24.98;15.10;;;;;;;10.70;100.00;99996.81;4942301;28;20024;-76
2023/10/24 09:46:18;;;;;;;24.67;17.02;;;;;;;10.47;100.00;99996.88;4949265;28;20071;-77
2023/10/24 09:48:44;;;;;;;25.73;17.33;;;;;;;10.60;100.00;99995.41;4944083;28;20395;-76
2023/10/24 09:51:10;;;;;;;32.65;16.23;;;;;;;10.56;100.00;100000.31;4949370;28;20034;-76
2023/10/24 09:53:36;;;;;;;27.35;16.27;;;;;;;10.53;100.00;100004.13;4945255;28;20039;-76
2023/10/24 09:56:02;;;;;;;;;;;;;;;10.66;100.00;100003.53;4948078;28;20038;-76
2023/10/24 09:58:29;;;;;;;30.48;16.85;;;;;;;10.65;100.00;99988.53;4951295;28;19919;-76
2023/10/24 10:00:56;;;;;;;21.80;15.52;;;;;;;10.74;100.00;99998.09;4958060;28;20031;-77
2023/10/24 10:03:22;;;;;;;22.45;15.48;;;;;;;10.81;100.00;99992.88;4950264;28;20399;-76
2023/10/24 10:05:48;;;;;;;25.27;15.75;;;;;;;10.87;100.00;99981.47;4944461;28;20031;-76
2023/10/24 10:08:16;;;;;;;30.92;17.40;;;;;;;10.48;100.00;99971.81;4964353;28;20067;-76
2023/10/24 10:10:43;;;;;;;29.80;16.65;;;;;;;10.69;100.00;99989.81;4950804;28;20083;-76
2023/10/24 10:13:13;;;;;;;25.92;16.30;;;;;;;10.67;100.00;99991.00;4950234;28;20063;-75
2023/10/24 10:15:47;;;;;;;27.58;17.35;;;;;;;10.48;100.00;99985.16;4944590;28;20118;-76
2023/10/24 10:18:26;;;;;;;26.85;16.50;;;;;;;10.63;100.00;99995.03;4949790;28;20138;-76
2023/10/24 10:21:07;;;;;;;27.13;17.98;;;;;;;10.48;100.00;99998.50;4942640;28;20036;-75
2023/10/24 10:24:05;;;;;;;28.30;15.82;;;;;;;10.77;100.00;100015.63;4944548;28;20034;-75
2023/10/24 10:27:09;;;;;;;23.15;16.27;;;;;;;10.78;100.00;99995.91;4943724;28;20032;-76
2023/10/24 10:29:50;;;;;;;24.60;15.95;;;;;;;10.73;100.00;99992.97;4936165;28;20027;-76
2023/10/24 10:33:03;;;;;;;24.52;16.20;;;;;;;10.64;100.00;99991.38;4948404;28;20031;-76
2023/10/24 10:35:53;;;;;;;32.00;16.88;;;;;;;10.65;100.00;99993.03;4940236;28;20110;-76
2023/10/24 10:38:43;;;;;;;31.70;17.35;;;;;;;10.80;100.00;99995.75;4950790;28;20042;-75
2023/10/24 10:41:23;;;;;;;28.75;17.38;;;;;;;10.65;100.00;99982.34;4945087;28;20468;-76
2023/10/24 10:44:05;;;;;;;27.85;18.20;;;;;;;10.79;100.00;99989.53;4948443;28;20516;-76
2023/10/24 10:46:32;;;;;;;34.03;18.70;;;;;;;10.70;100.00;99972.81;4943554;28;20031;-76
2023/10/24 10:48:59;;;;;;;35.33;19.13;;;;;;;10.83;100.00;99974.81;4945816;28;20034;-76
2023/10/24 10:51:43;;;;;;;27.35;16.52;;;;;;;10.65;100.00;99961.00;4942865;28;20054;-75
2023/10/24 10:54:23;;;;;;;32.50;19.15;;;;;;;10.73;100.00;99968.94;4947189;28;20043;-76
2023/10/24 10:56:49;;;;;;;31.63;18.95;;;;;;;10.72;100.00;99965.44;4944556;29;20121;-76
2023/10/24 10:59:33;;;;;;;28.73;18.13;;;;;;;10.80;100.00;99959.19;4950454;28;20054;-76
2023/10/24 11:02:30;;;;;;;29.45;18.88;;;;;;;10.92;100.00;99967.56;4946027;28;20303;-76
2023/10/24 11:04:56;;;;;;;29.80;18.05;;;;;;;10.91;100.00;99949.88;4938311;28;20044;-76
2023/10/24 11:07:50;;;;;;;37.87;18.27;;;;;;;10.86;100.00;99963.78;4949792;28;20086;-76
2023/10/24 11:10:16;;;;;;;31.08;18.45;;;;;;;10.74;100.00;99959.91;4932989;28;20674;-76
2023/10/24 11:12:50;;;;;;;33.45;18.02;;;;;;;10.73;100.00;99963.59;4949311;28;20022;-76